^^
Station Historical Data
Daily Summary for May 7, 2017 Units:  Both    English   Metric
« Previous Day
Next Day »
Daily Weekly Monthly Yearly Custom
  High: Low: Average:
Temperature: 77.4 °F /  25.2 °C 56.7 °F /  13.7 °C 65.8 °F /  18.8 °C
Dew Point: 48.2 °F /  9 °C 41.5 °F /  5.3 °C 44.5 °F /  6.9 °C
Humidity: 64% 30% 48%
Wind Speed: 8.1mph /  13km/h - 0.6mph /  1km/h
Wind Gust: 8.1mph /  13km/h - -
Wind- - SE
Pressure: 29.99 in /  1015.5 hPa 29.87 in /  1011.4 hPa -
Precipitation: 0.00 in /  0 mm    
Historical Graphs
 
 
Tabular Data for May 7, 2017
Time Temperature Dew Point Pressure Wind Wind Speed Wind Gust Humidity Rainfall Rate (Hourly) solar Conditions
00:05 62.1 °F /  16.7 °C 47.5 °F /  8.6 °C 29.95in /  1014.1hPa Calm     59% 0.00in /  0mm 0.0 W/m2
00:11 62.1 °F /  16.7 °C 47.5 °F /  8.6 °C 29.94in /  1013.8hPa Calm     59% 0.00in /  0mm 0.0 W/m2
00:17 62.1 °F /  16.7 °C 47.5 °F /  8.6 °C 29.95in /  1014.1hPa Calm     59% 0.00in /  0mm 0.0 W/m2
00:23 61.9 °F /  16.6 °C 47.5 °F /  8.6 °C 29.95in /  1014.1hPa Calm     59% 0.00in /  0mm 0.0 W/m2
00:29 61.7 °F /  16.5 °C 47.3 °F /  8.5 °C 29.95in /  1014.1hPa Calm     59% 0.00in /  0mm 0.0 W/m2
00:35 61.7 °F /  16.5 °C 47.3 °F /  8.5 °C 29.94in /  1013.8hPa Calm     59% 0.00in /  0mm 0.0 W/m2
00:44 61.5 °F /  16.4 °C 47.5 °F /  8.6 °C 29.94in /  1013.8hPa Calm     60% 0.00in /  0mm 0.0 W/m2
00:50 61.5 °F /  16.4 °C 47.1 °F /  8.4 °C 29.94in /  1013.8hPa Calm     59% 0.00in /  0mm 0.0 W/m2
00:56 61.3 °F /  16.3 °C 47.3 °F /  8.5 °C 29.94in /  1013.8hPa Calm     60% 0.00in /  0mm 0.0 W/m2
01:04 61.3 °F /  16.3 °C 47.3 °F /  8.5 °C 29.94in /  1013.8hPa East 0.9mph /  1.4km/h 1.0mph /  1.6km/h 60% 0.00in /  0mm 0.0 W/m2
01:10 61.3 °F /  16.3 °C 47.3 °F /  8.5 °C 29.94in /  1013.8hPa Calm   2.0mph /  3.2km/h 60% 0.00in /  0mm 0.0 W/m2
01:16 61.3 °F /  16.3 °C 46.9 °F /  8.3 °C 29.94in /  1013.8hPa Calm   2.0mph /  3.2km/h 59% 0.00in /  0mm 0.0 W/m2
01:23 61.5 °F /  16.4 °C 47.1 °F /  8.4 °C 29.94in /  1013.8hPa Calm   5.0mph /  8km/h 59% 0.00in /  0mm 0.0 W/m2
01:29 61.7 °F /  16.5 °C 47.3 °F /  8.5 °C 29.94in /  1013.8hPa Calm   2.0mph /  3.2km/h 59% 0.00in /  0mm 0.0 W/m2
01:35 61.9 °F /  16.6 °C 47.5 °F /  8.6 °C 29.94in /  1013.8hPa Calm   2.0mph /  3.2km/h 59% 0.00in /  0mm 0.0 W/m2
01:41 61.9 °F /  16.6 °C 46.9 °F /  8.3 °C 29.94in /  1013.8hPa NNE 2.0mph /  3.2km/h 2.0mph /  3.2km/h 58% 0.00in /  0mm 0.0 W/m2
01:47 62.1 °F /  16.7 °C 47.5 °F /  8.6 °C 29.93in /  1013.4hPa Calm   3.0mph /  4.8km/h 59% 0.00in /  0mm 0.0 W/m2
01:53 62.1 °F /  16.7 °C 47.5 °F /  8.6 °C 29.93in /  1013.4hPa ENE 4.0mph /  6.4km/h 5.0mph /  8km/h 59% 0.00in /  0mm 0.0 W/m2
01:59 62.1 °F /  16.7 °C 47.5 °F /  8.6 °C 29.93in /  1013.4hPa Calm   3.0mph /  4.8km/h 59% 0.00in /  0mm 0.0 W/m2
02:06 62.1 °F /  16.7 °C 47.5 °F /  8.6 °C 29.93in /  1013.4hPa NE 2.0mph /  3.2km/h 6.0mph /  9.7km/h 59% 0.00in /  0mm 0.0 W/m2
02:12 62.1 °F /  16.7 °C 47.5 °F /  8.6 °C 29.94in /  1013.8hPa Calm   5.0mph /  8km/h 59% 0.00in /  0mm 0.0 W/m2
02:18 62.2 °F /  16.8 °C 47.3 °F /  8.5 °C 29.93in /  1013.4hPa Calm   5.0mph /  8km/h 58% 0.00in /  0mm 0.0 W/m2
02:24 62.2 °F /  16.8 °C 47.7 °F /  8.7 °C 29.93in /  1013.4hPa Calm   3.0mph /  4.8km/h 59% 0.00in /  0mm 0.0 W/m2
02:30 62.2 °F /  16.8 °C 47.7 °F /  8.7 °C 29.93in /  1013.4hPa Calm   4.0mph /  6.4km/h 59% 0.00in /  0mm 0.0 W/m2
02:36 62.2 °F /  16.8 °C 47.7 °F /  8.7 °C 29.93in /  1013.4hPa Calm   1.0mph /  1.6km/h 59% 0.00in /  0mm 0.0 W/m2
02:43 62.1 °F /  16.7 °C 48.0 °F /  8.9 °C 29.93in /  1013.4hPa Calm   3.0mph /  4.8km/h 60% 0.00in /  0mm 0.0 W/m2
02:49 61.9 °F /  16.6 °C 47.8 °F /  8.8 °C 29.93in /  1013.4hPa Calm   2.0mph /  3.2km/h 60% 0.00in /  0mm 0.0 W/m2
02:55 61.9 °F /  16.6 °C 48.2 °F /  9 °C 29.93in /  1013.4hPa NE 0.9mph /  1.4km/h 2.0mph /  3.2km/h 61% 0.00in /  0mm 0.0 W/m2
03:01 61.5 °F /  16.4 °C 48.0 °F /  8.9 °C 29.93in /  1013.4hPa Calm   2.0mph /  3.2km/h 61% 0.00in /  0mm 0.0 W/m2
03:07 61.5 °F /  16.4 °C 48.0 °F /  8.9 °C 29.93in /  1013.4hPa Calm     61% 0.00in /  0mm 0.0 W/m2
03:13 61.3 °F /  16.3 °C 47.8 °F /  8.8 °C 29.93in /  1013.4hPa Calm     61% 0.00in /  0mm 0.0 W/m2
03:19 61.3 °F /  16.3 °C 48.2 °F /  9 °C 29.93in /  1013.4hPa Calm     62% 0.00in /  0mm 0.0 W/m2
03:25 61.2 °F /  16.2 °C 47.7 °F /  8.7 °C 29.93in /  1013.4hPa Calm     61% 0.00in /  0mm 0.0 W/m2
03:32 61.2 °F /  16.2 °C 48.0 °F /  8.9 °C 29.93in /  1013.4hPa Calm     62% 0.00in /  0mm 0.0 W/m2
03:38 61.2 °F /  16.2 °C 48.0 °F /  8.9 °C 29.93in /  1013.4hPa Calm     62% 0.00in /  0mm 0.0 W/m2
03:44 61.0 °F /  16.1 °C 47.8 °F /  8.8 °C 29.93in /  1013.4hPa Calm     62% 0.00in /  0mm 0.0 W/m2
03:50 60.8 °F /  16 °C 48.2 °F /  9 °C 29.93in /  1013.4hPa Calm     63% 0.00in /  0mm 0.0 W/m2
03:56 60.6 °F /  15.9 °C 48.0 °F /  8.9 °C 29.93in /  1013.4hPa Calm     63% 0.00in /  0mm 0.0 W/m2
04:02 60.4 °F /  15.8 °C 47.8 °F /  8.8 °C 29.93in /  1013.4hPa Calm     63% 0.00in /  0mm 0.0 W/m2
04:08 60.4 °F /  15.8 °C 47.8 °F /  8.8 °C 29.93in /  1013.4hPa Calm     63% 0.00in /  0mm 0.0 W/m2
04:14 60.3 °F /  15.7 °C 47.7 °F /  8.7 °C 29.93in /  1013.4hPa Calm   1.0mph /  1.6km/h 63% 0.00in /  0mm 0.0 W/m2
04:21 59.9 °F /  15.5 °C 47.3 °F /  8.5 °C 29.93in /  1013.4hPa Calm   1.0mph /  1.6km/h 63% 0.00in /  0mm 0.0 W/m2
04:27 59.7 °F /  15.4 °C 47.5 °F /  8.6 °C 29.93in /  1013.4hPa Calm     64% 0.00in /  0mm 0.0 W/m2
04:33 59.5 °F /  15.3 °C 47.3 °F /  8.5 °C 29.93in /  1013.4hPa Calm     64% 0.00in /  0mm 0.0 W/m2
04:39 59.2 °F /  15.1 °C 46.9 °F /  8.3 °C 29.93in /  1013.4hPa Calm     64% 0.00in /  0mm 0.0 W/m2
04:45 59.0 °F /  15 °C 46.4 °F /  8 °C 29.93in /  1013.4hPa Calm     63% 0.00in /  0mm 0.0 W/m2
04:51 58.6 °F /  14.8 °C 46.6 °F /  8.1 °C 29.93in /  1013.4hPa Calm     64% 0.00in /  0mm 0.0 W/m2
04:57 58.5 °F /  14.7 °C 46.4 °F /  8 °C 29.93in /  1013.4hPa Calm     64% 0.00in /  0mm 0.0 W/m2
05:03 58.3 °F /  14.6 °C 46.2 °F /  7.9 °C 29.93in /  1013.4hPa Calm   2.0mph /  3.2km/h 64% 0.00in /  0mm 0.0 W/m2
05:10 58.3 °F /  14.6 °C 46.2 °F /  7.9 °C 29.93in /  1013.4hPa Calm     64% 0.00in /  0mm 0.0 W/m2
05:16 58.1 °F /  14.5 °C 46.0 °F /  7.8 °C 29.93in /  1013.4hPa Calm     64% 0.00in /  0mm 0.0 W/m2
05:22 57.9 °F /  14.4 °C 45.3 °F /  7.4 °C 29.93in /  1013.4hPa Calm     63% 0.00in /  0mm 0.0 W/m2
05:28 57.9 °F /  14.4 °C 44.6 °F /  7 °C 29.93in /  1013.4hPa Calm     61% 0.00in /  0mm 0.0 W/m2
05:34 57.9 °F /  14.4 °C 44.6 °F /  7 °C 29.93in /  1013.4hPa Calm     61% 0.00in /  0mm 0.0 W/m2
05:40 57.9 °F /  14.4 °C 44.6 °F /  7 °C 29.94in /  1013.8hPa Calm   1.0mph /  1.6km/h 61% 0.00in /  0mm 0.0 W/m2
05:46 57.9 °F /  14.4 °C 44.6 °F /  7 °C 29.94in /  1013.8hPa Calm   2.0mph /  3.2km/h 61% 0.00in /  0mm 0.0 W/m2
05:53 57.9 °F /  14.4 °C 44.6 °F /  7 °C 29.94in /  1013.8hPa Calm   1.0mph /  1.6km/h 61% 0.00in /  0mm 0.0 W/m2
05:59 57.9 °F /  14.4 °C 44.1 °F /  6.7 °C 29.94in /  1013.8hPa ENE 0.9mph /  1.4km/h 3.0mph /  4.8km/h 60% 0.00in /  0mm 0.0 W/m2
06:05 57.9 °F /  14.4 °C 44.1 °F /  6.7 °C 29.94in /  1013.8hPa Calm     60% 0.00in /  0mm 0.0 W/m2
06:11 57.9 °F /  14.4 °C 43.7 °F /  6.5 °C 29.94in /  1013.8hPa Calm   1.0mph /  1.6km/h 59% 0.00in /  0mm 0.0 W/m2
06:19 57.9 °F /  14.4 °C 44.1 °F /  6.7 °C 29.94in /  1013.8hPa NE 2.0mph /  3.2km/h 3.0mph /  4.8km/h 60% 0.00in /  0mm 0.0 W/m2
06:24 57.9 °F /  14.4 °C 44.6 °F /  7 °C 29.94in /  1013.8hPa Calm   1.0mph /  1.6km/h 61% 0.00in /  0mm 9.0 W/m2
06:30 57.9 °F /  14.4 °C 44.6 °F /  7 °C 29.95in /  1014.1hPa NE 0.9mph /  1.4km/h 2.0mph /  3.2km/h 61% 0.00in /  0mm 12.0 W/m2
06:36 57.7 °F /  14.3 °C 44.4 °F /  6.9 °C 29.95in /  1014.1hPa ENE 0.9mph /  1.4km/h 3.0mph /  4.8km/h 61% 0.00in /  0mm 19.0 W/m2
06:42 57.7 °F /  14.3 °C 44.4 °F /  6.9 °C 29.95in /  1014.1hPa Calm   1.0mph /  1.6km/h 61% 0.00in /  0mm 28.0 W/m2
06:49 57.7 °F /  14.3 °C 44.4 °F /  6.9 °C 29.95in /  1014.1hPa ENE 0.9mph /  1.4km/h 2.0mph /  3.2km/h 61% 0.00in /  0mm 37.0 W/m2
06:55 57.9 °F /  14.4 °C 44.6 °F /  7 °C 29.96in /  1014.4hPa NE 0.9mph /  1.4km/h 1.0mph /  1.6km/h 61% 0.00in /  0mm 47.0 W/m2
07:00 57.9 °F /  14.4 °C 44.6 °F /  7 °C 29.96in /  1014.4hPa Calm   3.0mph /  4.8km/h 61% 0.00in /  0mm 60.0 W/m2
07:06 58.3 °F /  14.6 °C 45.0 °F /  7.2 °C 29.96in /  1014.4hPa Calm   2.0mph /  3.2km/h 61% 0.00in /  0mm 69.0 W/m2
07:12 58.5 °F /  14.7 °C 44.6 °F /  7 °C 29.96in /  1014.4hPa NE 0.9mph /  1.4km/h 3.0mph /  4.8km/h 60% 0.00in /  0mm 79.0 W/m2
07:20 58.6 °F /  14.8 °C 43.9 °F /  6.6 °C 29.97in /  1014.8hPa NE 0.9mph /  1.4km/h 2.0mph /  3.2km/h 58% 0.00in /  0mm 84.0 W/m2
07:25 59.0 °F /  15 °C 44.2 °F /  6.8 °C 29.97in /  1014.8hPa NE 0.9mph /  1.4km/h 3.0mph /  4.8km/h 58% 0.00in /  0mm 102.0 W/m2
07:31 59.4 °F /  15.2 °C 44.6 °F /  7 °C 29.97in /  1014.8hPa Calm   2.0mph /  3.2km/h 58% 0.00in /  0mm 111.0 W/m2
07:37 59.5 °F /  15.3 °C 44.2 °F /  6.8 °C 29.97in /  1014.8hPa Calm   2.0mph /  3.2km/h 57% 0.00in /  0mm 121.0 W/m2
07:44 59.9 °F /  15.5 °C 44.6 °F /  7 °C 29.98in /  1015.1hPa Calm   1.0mph /  1.6km/h 57% 0.00in /  0mm 128.0 W/m2
07:50 60.3 °F /  15.7 °C 44.1 °F /  6.7 °C 29.98in /  1015.1hPa NNE 0.9mph /  1.4km/h 2.0mph /  3.2km/h 55% 0.00in /  0mm 141.0 W/m2
07:55 61.0 °F /  16.1 °C 45.1 °F /  7.3 °C 29.98in /  1015.1hPa Calm   2.0mph /  3.2km/h 56% 0.00in /  0mm 155.0 W/m2
08:01 61.5 °F /  16.4 °C 44.8 °F /  7.1 °C 29.98in /  1015.1hPa Calm     54% 0.00in /  0mm 171.0 W/m2
08:08 62.1 °F /  16.7 °C 44.2 °F /  6.8 °C 29.98in /  1015.1hPa NNW 0.9mph /  1.4km/h 3.0mph /  4.8km/h 52% 0.00in /  0mm 185.0 W/m2
08:15 62.4 °F /  16.9 °C 44.6 °F /  7 °C 29.98in /  1015.1hPa Calm   3.0mph /  4.8km/h 52% 0.00in /  0mm 200.0 W/m2
08:20 63.0 °F /  17.2 °C 44.6 °F /  7 °C 29.98in /  1015.1hPa Calm   3.0mph /  4.8km/h 51% 0.00in /  0mm 216.0 W/m2
08:26 63.1 °F /  17.3 °C 44.8 °F /  7.1 °C 29.98in /  1015.1hPa Calm     51% 0.00in /  0mm 213.0 W/m2
08:32 63.7 °F /  17.6 °C 43.7 °F /  6.5 °C 29.98in /  1015.1hPa North 0.9mph /  1.4km/h 2.0mph /  3.2km/h 48% 0.00in /  0mm 239.0 W/m2
08:40 63.9 °F /  17.7 °C 44.2 °F /  6.8 °C 29.98in /  1015.1hPa Calm   3.0mph /  4.8km/h 49% 0.00in /  0mm 248.0 W/m2
08:45 64.2 °F /  17.9 °C 45.1 °F /  7.3 °C 29.98in /  1015.1hPa Calm     50% 0.00in /  0mm 294.0 W/m2
08:51 64.8 °F /  18.2 °C 43.5 °F /  6.4 °C 29.99in /  1015.5hPa NNE 0.9mph /  1.4km/h 3.0mph /  4.8km/h 46% 0.00in /  0mm 320.0 W/m2
08:57 65.1 °F /  18.4 °C 42.6 °F /  5.9 °C 29.98in /  1015.1hPa Calm   4.0mph /  6.4km/h 44% 0.00in /  0mm 385.0 W/m2
09:03 65.7 °F /  18.7 °C 43.2 °F /  6.2 °C 29.99in /  1015.5hPa Calm   3.0mph /  4.8km/h 44% 0.00in /  0mm 322.0 W/m2
09:10 65.8 °F /  18.8 °C 44.4 °F /  6.9 °C 29.99in /  1015.5hPa Calm   2.0mph /  3.2km/h 46% 0.00in /  0mm 325.0 W/m2
09:15 65.8 °F /  18.8 °C 43.3 °F /  6.3 °C 29.99in /  1015.5hPa West 0.9mph /  1.4km/h 1.0mph /  1.6km/h 44% 0.00in /  0mm 323.0 W/m2
09:21 65.8 °F /  18.8 °C 43.9 °F /  6.6 °C 29.99in /  1015.5hPa Calm     45% 0.00in /  0mm 350.0 W/m2
09:27 65.8 °F /  18.8 °C 43.3 °F /  6.3 °C 29.99in /  1015.5hPa North 2.0mph /  3.2km/h 3.0mph /  4.8km/h 44% 0.00in /  0mm 332.0 W/m2
09:33 66.2 °F /  19 °C 43.0 °F /  6.1 °C 29.98in /  1015.1hPa Calm   1.0mph /  1.6km/h 43% 0.00in /  0mm 339.0 W/m2
09:39 66.7 °F /  19.3 °C 44.1 °F /  6.7 °C 29.98in /  1015.1hPa Calm   1.0mph /  1.6km/h 44% 0.00in /  0mm 438.0 W/m2
09:45 67.5 °F /  19.7 °C 43.0 °F /  6.1 °C 29.98in /  1015.1hPa Calm   3.0mph /  4.8km/h 41% 0.00in /  0mm 418.0 W/m2
09:51 68.2 °F /  20.1 °C 43.0 °F /  6.1 °C 29.98in /  1015.1hPa North 2.9mph /  4.7km/h 3.0mph /  4.8km/h 40% 0.00in /  0mm 786.0 W/m2
09:57 69.1 °F /  20.6 °C 43.2 °F /  6.2 °C 29.98in /  1015.1hPa NNE 0.9mph /  1.4km/h 5.0mph /  8km/h 39% 0.00in /  0mm 786.0 W/m2
10:03 70.0 °F /  21.1 °C 43.2 °F /  6.2 °C 29.98in /  1015.1hPa North 4.9mph /  7.9km/h 8.0mph /  12.9km/h 38% 0.00in /  0mm 763.0 W/m2
10:09 70.9 °F /  21.6 °C 42.6 °F /  5.9 °C 29.98in /  1015.1hPa ESE 0.9mph /  1.4km/h 4.0mph /  6.4km/h 36% 0.00in /  0mm 773.0 W/m2
10:15 71.4 °F /  21.9 °C 43.7 °F /  6.5 °C 29.98in /  1015.1hPa NW 0.9mph /  1.4km/h 2.0mph /  3.2km/h 37% 0.00in /  0mm 809.0 W/m2
10:21 71.6 °F /  22 °C 43.9 °F /  6.6 °C 29.98in /  1015.1hPa Calm   5.0mph /  8km/h 37% 0.00in /  0mm 844.0 W/m2
10:27 72.1 °F /  22.3 °C 43.0 °F /  6.1 °C 29.98in /  1015.1hPa Calm   3.0mph /  4.8km/h 35% 0.00in /  0mm 341.0 W/m2
10:33 71.6 °F /  22 °C 43.2 °F /  6.2 °C 29.97in /  1014.8hPa North 0.9mph /  1.4km/h 5.0mph /  8km/h 36% 0.00in /  0mm 427.0 W/m2
10:39 71.2 °F /  21.8 °C 43.0 °F /  6.1 °C 29.97in /  1014.8hPa North 2.0mph /  3.2km/h 5.0mph /  8km/h 36% 0.00in /  0mm 376.0 W/m2
10:45 71.1 °F /  21.7 °C 43.5 °F /  6.4 °C 29.97in /  1014.8hPa WNW 2.0mph /  3.2km/h 5.0mph /  8km/h 37% 0.00in /  0mm 434.0 W/m2
10:51 71.1 °F /  21.7 °C 43.5 °F /  6.4 °C 29.96in /  1014.4hPa Calm   2.0mph /  3.2km/h 37% 0.00in /  0mm 566.0 W/m2
10:57 71.2 °F /  21.8 °C 43.7 °F /  6.5 °C 29.96in /  1014.4hPa NNW 4.0mph /  6.4km/h 5.0mph /  8km/h 37% 0.00in /  0mm 432.0 W/m2
11:03 71.2 °F /  21.8 °C 43.7 °F /  6.5 °C 29.96in /  1014.4hPa WNW 2.0mph /  3.2km/h 4.0mph /  6.4km/h 37% 0.00in /  0mm 478.0 W/m2
11:09 71.4 °F /  21.9 °C 43.2 °F /  6.2 °C 29.96in /  1014.4hPa Calm   5.0mph /  8km/h 36% 0.00in /  0mm 575.0 W/m2
11:15 71.6 °F /  22 °C 43.9 °F /  6.6 °C 29.96in /  1014.4hPa NNW 6.0mph /  9.7km/h 6.0mph /  9.7km/h 37% 0.00in /  0mm 515.0 W/m2
11:21 71.4 °F /  21.9 °C 43.7 °F /  6.5 °C 29.96in /  1014.4hPa Calm   3.0mph /  4.8km/h 37% 0.00in /  0mm 624.0 W/m2
11:27 71.8 °F /  22.1 °C 44.1 °F /  6.7 °C 29.95in /  1014.1hPa NNE 2.0mph /  3.2km/h 2.0mph /  3.2km/h 37% 0.00in /  0mm 1051.0 W/m2
11:33 72.3 °F /  22.4 °C 44.6 °F /  7 °C 29.95in /  1014.1hPa North 0.9mph /  1.4km/h 3.0mph /  4.8km/h 37% 0.00in /  0mm 545.0 W/m2
11:39 72.9 °F /  22.7 °C 44.4 °F /  6.9 °C 29.94in /  1013.8hPa NNE 0.9mph /  1.4km/h 3.0mph /  4.8km/h 36% 0.00in /  0mm 522.0 W/m2
11:45 72.9 °F /  22.7 °C 44.4 °F /  6.9 °C 29.94in /  1013.8hPa North 4.0mph /  6.4km/h 8.0mph /  12.9km/h 36% 0.00in /  0mm 830.0 W/m2
11:51 72.7 °F /  22.6 °C 43.5 °F /  6.4 °C 29.93in /  1013.4hPa NNW 2.0mph /  3.2km/h 6.0mph /  9.7km/h 35% 0.00in /  0mm 856.0 W/m2
11:57 73.0 °F /  22.8 °C 43.7 °F /  6.5 °C 29.93in /  1013.4hPa WNW 0.9mph /  1.4km/h 1.0mph /  1.6km/h 35% 0.00in /  0mm 826.0 W/m2
12:03 73.2 °F /  22.9 °C 44.6 °F /  7 °C 29.93in /  1013.4hPa West 0.9mph /  1.4km/h 3.0mph /  4.8km/h 36% 0.00in /  0mm 795.0 W/m2
12:09 73.0 °F /  22.8 °C 43.7 °F /  6.5 °C 29.92in /  1013.1hPa NE 2.9mph /  4.7km/h 6.0mph /  9.7km/h 35% 0.00in /  0mm 772.0 W/m2
12:15 73.2 °F /  22.9 °C 43.9 °F /  6.6 °C 29.92in /  1013.1hPa Calm   6.0mph /  9.7km/h 35% 0.00in /  0mm 765.0 W/m2
12:21 73.8 °F /  23.2 °C 43.7 °F /  6.5 °C 29.92in /  1013.1hPa NNW 0.9mph /  1.4km/h 4.0mph /  6.4km/h 34% 0.00in /  0mm 765.0 W/m2
12:27 74.1 °F /  23.4 °C 43.9 °F /  6.6 °C 29.91in /  1012.8hPa East 2.0mph /  3.2km/h 3.0mph /  4.8km/h 34% 0.00in /  0mm 758.0 W/m2
12:33 74.5 °F /  23.6 °C 45.0 °F /  7.2 °C 29.91in /  1012.8hPa North 2.0mph /  3.2km/h 8.0mph /  12.9km/h 35% 0.00in /  0mm 754.0 W/m2
12:40 74.7 °F /  23.7 °C 44.4 °F /  6.9 °C 29.91in /  1012.8hPa Calm   7.0mph /  11.3km/h 34% 0.00in /  0mm 747.0 W/m2
12:45 74.7 °F /  23.7 °C 45.1 °F /  7.3 °C 29.91in /  1012.8hPa Calm   2.0mph /  3.2km/h 35% 0.00in /  0mm 744.0 W/m2
12:51 74.5 °F /  23.6 °C 43.5 °F /  6.4 °C 29.90in /  1012.4hPa Calm   2.0mph /  3.2km/h 33% 0.00in /  0mm 733.0 W/m2
12:57 74.7 °F /  23.7 °C 43.7 °F /  6.5 °C 29.90in /  1012.4hPa NNW 4.9mph /  7.9km/h 5.0mph /  8km/h 33% 0.00in /  0mm 729.0 W/m2
13:04 75.0 °F /  23.9 °C 44.8 °F /  7.1 °C 29.90in /  1012.4hPa SSE 0.9mph /  1.4km/h 5.0mph /  8km/h 34% 0.00in /  0mm 737.0 W/m2
13:09 74.7 °F /  23.7 °C 44.4 °F /  6.9 °C 29.90in /  1012.4hPa SSW 4.0mph /  6.4km/h 6.0mph /  9.7km/h 34% 0.00in /  0mm 715.0 W/m2
13:16 74.5 °F /  23.6 °C 44.2 °F /  6.8 °C 29.89in /  1012.1hPa Calm   1.0mph /  1.6km/h 34% 0.00in /  0mm 710.0 W/m2
13:21 74.3 °F /  23.5 °C 45.7 °F /  7.6 °C 29.89in /  1012.1hPa Calm   2.0mph /  3.2km/h 36% 0.00in /  0mm 708.0 W/m2
13:28 74.8 °F /  23.8 °C 44.6 °F /  7 °C 29.89in /  1012.1hPa Calm   3.0mph /  4.8km/h 34% 0.00in /  0mm 707.0 W/m2
13:34 75.4 °F /  24.1 °C 44.2 °F /  6.8 °C 29.89in /  1012.1hPa North 2.0mph /  3.2km/h 7.0mph /  11.3km/h 33% 0.00in /  0mm 701.0 W/m2
13:40 75.7 °F /  24.3 °C 43.7 °F /  6.5 °C 29.89in /  1012.1hPa NW 0.9mph /  1.4km/h 5.0mph /  8km/h 32% 0.00in /  0mm 696.0 W/m2
13:46 76.1 °F /  24.5 °C 44.1 °F /  6.7 °C 29.89in /  1012.1hPa Calm   5.0mph /  8km/h 32% 0.00in /  0mm 707.0 W/m2
13:52 76.5 °F /  24.7 °C 44.4 °F /  6.9 °C 29.89in /  1012.1hPa Calm   3.0mph /  4.8km/h 32% 0.00in /  0mm 737.0 W/m2
13:58 76.6 °F /  24.8 °C 43.7 °F /  6.5 °C 29.89in /  1012.1hPa Calm   6.0mph /  9.7km/h 31% 0.00in /  0mm 731.0 W/m2
14:04 76.5 °F /  24.7 °C 43.5 °F /  6.4 °C 29.88in /  1011.7hPa NNW 8.1mph /  13km/h 8.1mph /  13km/h 31% 0.00in /  0mm 445.0 W/m2
14:10 76.3 °F /  24.6 °C 44.2 °F /  6.8 °C 29.88in /  1011.7hPa Calm   6.0mph /  9.7km/h 32% 0.00in /  0mm 740.0 W/m2
14:16 76.3 °F /  24.6 °C 43.3 °F /  6.3 °C 29.88in /  1011.7hPa Calm   3.0mph /  4.8km/h 31% 0.00in /  0mm 728.0 W/m2
14:22 76.8 °F /  24.9 °C 44.8 °F /  7.1 °C 29.88in /  1011.7hPa North 6.0mph /  9.7km/h 7.0mph /  11.3km/h 32% 0.00in /  0mm 733.0 W/m2
14:28 77.2 °F /  25.1 °C 44.2 °F /  6.8 °C 29.88in /  1011.7hPa NNE 2.9mph /  4.7km/h 5.0mph /  8km/h 31% 0.00in /  0mm 721.0 W/m2
14:34 77.4 °F /  25.2 °C 43.5 °F /  6.4 °C 29.88in /  1011.7hPa NE 4.0mph /  6.4km/h 6.0mph /  9.7km/h 30% 0.00in /  0mm 679.0 W/m2
14:40 77.0 °F /  25 °C 44.1 °F /  6.7 °C 29.87in /  1011.4hPa Calm   8.0mph /  12.9km/h 31% 0.00in /  0mm 580.0 W/m2
14:46 77.0 °F /  25 °C 44.1 °F /  6.7 °C 29.87in /  1011.4hPa North 0.9mph /  1.4km/h 6.0mph /  9.7km/h 31% 0.00in /  0mm 592.0 W/m2
14:52 77.4 °F /  25.2 °C 44.4 °F /  6.9 °C 29.87in /  1011.4hPa Calm   5.0mph /  8km/h 31% 0.00in /  0mm 589.0 W/m2
14:58 77.0 °F /  25 °C 43.2 °F /  6.2 °C 29.87in /  1011.4hPa East 0.9mph /  1.4km/h 7.0mph /  11.3km/h 30% 0.00in /  0mm 151.0 W/m2
15:04 76.3 °F /  24.6 °C 43.3 °F /  6.3 °C 29.87in /  1011.4hPa East 4.0mph /  6.4km/h 4.0mph /  6.4km/h 31% 0.00in /  0mm 186.0 W/m2
15:10 75.9 °F /  24.4 °C 43.9 °F /  6.6 °C 29.87in /  1011.4hPa ESE 0.9mph /  1.4km/h 7.0mph /  11.3km/h 32% 0.00in /  0mm 468.0 W/m2
15:16 75.9 °F /  24.4 °C 43.9 °F /  6.6 °C 29.87in /  1011.4hPa ESE 0.9mph /  1.4km/h 4.0mph /  6.4km/h 32% 0.00in /  0mm 141.0 W/m2
15:22 75.4 °F /  24.1 °C 42.6 °F /  5.9 °C 29.87in /  1011.4hPa East 0.9mph /  1.4km/h 4.0mph /  6.4km/h 31% 0.00in /  0mm 139.0 W/m2
15:28 74.8 °F /  23.8 °C 42.3 °F /  5.7 °C 29.87in /  1011.4hPa Calm   6.0mph /  9.7km/h 31% 0.00in /  0mm 413.0 W/m2
15:34 74.7 °F /  23.7 °C 42.8 °F /  6 °C 29.87in /  1011.4hPa NE 4.0mph /  6.4km/h 5.0mph /  8km/h 32% 0.00in /  0mm 114.0 W/m2
15:40 74.1 °F /  23.4 °C 42.4 °F /  5.8 °C 29.87in /  1011.4hPa Calm   4.0mph /  6.4km/h 32% 0.00in /  0mm 132.0 W/m2
15:46 73.9 °F /  23.3 °C 43.0 °F /  6.1 °C 29.87in /  1011.4hPa ENE 0.9mph /  1.4km/h 3.0mph /  4.8km/h 33% 0.00in /  0mm 100.0 W/m2
15:52 73.8 °F /  23.2 °C 43.7 °F /  6.5 °C 29.87in /  1011.4hPa East 2.0mph /  3.2km/h 5.0mph /  8km/h 34% 0.00in /  0mm 105.0 W/m2
15:58 73.6 °F /  23.1 °C 42.6 °F /  5.9 °C 29.87in /  1011.4hPa Calm   2.0mph /  3.2km/h 33% 0.00in /  0mm 102.0 W/m2
16:04 73.6 °F /  23.1 °C 42.6 °F /  5.9 °C 29.87in /  1011.4hPa NE 4.0mph /  6.4km/h 4.0mph /  6.4km/h 33% 0.00in /  0mm 97.0 W/m2
16:10 73.6 °F /  23.1 °C 42.6 °F /  5.9 °C 29.87in /  1011.4hPa Calm   3.0mph /  4.8km/h 33% 0.00in /  0mm 84.0 W/m2
16:16 73.4 °F /  23 °C 42.6 °F /  5.9 °C 29.87in /  1011.4hPa Calm   4.0mph /  6.4km/h 33% 0.00in /  0mm 72.0 W/m2
16:22 73.2 °F /  22.9 °C 42.4 °F /  5.8 °C 29.87in /  1011.4hPa Calm   4.0mph /  6.4km/h 33% 0.00in /  0mm 63.0 W/m2
16:30 73.0 °F /  22.8 °C 43.0 °F /  6.1 °C 29.88in /  1011.7hPa ENE 0.9mph /  1.4km/h 4.0mph /  6.4km/h 34% 0.00in /  0mm 58.0 W/m2
16:36 73.0 °F /  22.8 °C 43.0 °F /  6.1 °C 29.88in /  1011.7hPa Calm   3.0mph /  4.8km/h 34% 0.00in /  0mm 49.0 W/m2
16:42 72.9 °F /  22.7 °C 42.8 °F /  6 °C 29.88in /  1011.7hPa Calm     34% 0.00in /  0mm 33.0 W/m2
16:48 72.7 °F /  22.6 °C 42.6 °F /  5.9 °C 29.88in /  1011.7hPa NNE 0.9mph /  1.4km/h 3.0mph /  4.8km/h 34% 0.00in /  0mm 23.0 W/m2
16:54 72.3 °F /  22.4 °C 41.5 °F /  5.3 °C 29.88in /  1011.7hPa Calm   2.0mph /  3.2km/h 33% 0.00in /  0mm 14.0 W/m2
17:00 72.1 °F /  22.3 °C 42.3 °F /  5.7 °C 29.88in /  1011.7hPa North 2.9mph /  4.7km/h 3.0mph /  4.8km/h 34% 0.00in /  0mm 11.0 W/m2
17:06 72.0 °F /  22.2 °C 42.1 °F /  5.6 °C 29.88in /  1011.7hPa Calm   3.0mph /  4.8km/h 34% 0.00in /  0mm 5.0 W/m2
17:12 71.6 °F /  22 °C 42.4 °F /  5.8 °C 29.89in /  1012.1hPa ENE 0.9mph /  1.4km/h 3.0mph /  4.8km/h 35% 0.00in /  0mm 0.0 W/m2
17:18 71.2 °F /  21.8 °C 42.3 °F /  5.7 °C 29.89in /  1012.1hPa Calm   1.0mph /  1.6km/h 35% 0.00in /  0mm 0.0 W/m2
17:24 71.1 °F /  21.7 °C 42.8 °F /  6 °C 29.89in /  1012.1hPa Calm   1.0mph /  1.6km/h 36% 0.00in /  0mm 0.0 W/m2
17:30 70.9 °F /  21.6 °C 42.6 °F /  5.9 °C 29.89in /  1012.1hPa NNE 0.9mph /  1.4km/h 2.0mph /  3.2km/h 36% 0.00in /  0mm 0.0 W/m2
17:36 70.7 °F /  21.5 °C 43.2 °F /  6.2 °C 29.90in /  1012.4hPa Calm   1.0mph /  1.6km/h 37% 0.00in /  0mm 0.0 W/m2
17:42 70.5 °F /  21.4 °C 43.7 °F /  6.5 °C 29.90in /  1012.4hPa Calm   1.0mph /  1.6km/h 38% 0.00in /  0mm 0.0 W/m2
17:48 70.3 °F /  21.3 °C 42.8 °F /  6 °C 29.90in /  1012.4hPa Calm   1.0mph /  1.6km/h 37% 0.00in /  0mm 0.0 W/m2
17:54 70.2 °F /  21.2 °C 43.3 °F /  6.3 °C 29.91in /  1012.8hPa Calm     38% 0.00in /  0mm 0.0 W/m2
18:00 70.0 °F /  21.1 °C 43.9 °F /  6.6 °C 29.91in /  1012.8hPa Calm     39% 0.00in /  0mm 0.0 W/m2
18:06 69.6 °F /  20.9 °C 43.5 °F /  6.4 °C 29.91in /  1012.8hPa Calm   1.0mph /  1.6km/h 39% 0.00in /  0mm 0.0 W/m2
18:12 69.4 °F /  20.8 °C 44.1 °F /  6.7 °C 29.91in /  1012.8hPa Calm     40% 0.00in /  0mm 0.0 W/m2
18:18 69.3 °F /  20.7 °C 43.9 °F /  6.6 °C 29.91in /  1012.8hPa Calm     40% 0.00in /  0mm 0.0 W/m2
18:24 69.1 °F /  20.6 °C 44.4 °F /  6.9 °C 29.91in /  1012.8hPa Calm   1.0mph /  1.6km/h 41% 0.00in /  0mm 0.0 W/m2
18:30 68.7 °F /  20.4 °C 44.8 °F /  7.1 °C 29.91in /  1012.8hPa Calm   2.0mph /  3.2km/h 42% 0.00in /  0mm 0.0 W/m2
18:36 68.4 °F /  20.2 °C 44.4 °F /  6.9 °C 29.91in /  1012.8hPa Calm   1.0mph /  1.6km/h 42% 0.00in /  0mm 0.0 W/m2
18:42 68.2 °F /  20.1 °C 44.2 °F /  6.8 °C 29.92in /  1013.1hPa Calm     42% 0.00in /  0mm 0.0 W/m2
18:48 68.0 °F /  20 °C 44.1 °F /  6.7 °C 29.92in /  1013.1hPa Calm   1.0mph /  1.6km/h 42% 0.00in /  0mm 0.0 W/m2
18:54 67.8 °F /  19.9 °C 44.4 °F /  6.9 °C 29.92in /  1013.1hPa Calm   1.0mph /  1.6km/h 43% 0.00in /  0mm 0.0 W/m2
19:00 67.6 °F /  19.8 °C 44.4 °F /  6.9 °C 29.92in /  1013.1hPa ENE 0.9mph /  1.4km/h 1.0mph /  1.6km/h 43% 0.00in /  0mm 0.0 W/m2
19:06 67.5 °F /  19.7 °C 44.2 °F /  6.8 °C 29.92in /  1013.1hPa Calm     43% 0.00in /  0mm 0.0 W/m2
19:12 67.3 °F /  19.6 °C 44.1 °F /  6.7 °C 29.93in /  1013.4hPa Calm     43% 0.00in /  0mm 0.0 W/m2
19:18 66.9 °F /  19.4 °C 43.2 °F /  6.2 °C 29.93in /  1013.4hPa Calm   1.0mph /  1.6km/h 42% 0.00in /  0mm 0.0 W/m2
19:24 66.6 °F /  19.2 °C 44.1 °F /  6.7 °C 29.93in /  1013.4hPa Calm   1.0mph /  1.6km/h 44% 0.00in /  0mm 0.0 W/m2
19:30 66.4 °F /  19.1 °C 43.9 °F /  6.6 °C 29.93in /  1013.4hPa Calm     44% 0.00in /  0mm 0.0 W/m2
19:36 66.0 °F /  18.9 °C 44.1 °F /  6.7 °C 29.93in /  1013.4hPa Calm   1.0mph /  1.6km/h 45% 0.00in /  0mm 0.0 W/m2
19:42 65.8 °F /  18.8 °C 44.4 °F /  6.9 °C 29.93in /  1013.4hPa Calm   1.0mph /  1.6km/h 46% 0.00in /  0mm 0.0 W/m2
19:48 65.7 °F /  18.7 °C 44.2 °F /  6.8 °C 29.93in /  1013.4hPa Calm   1.0mph /  1.6km/h 46% 0.00in /  0mm 0.0 W/m2
19:54 65.3 °F /  18.5 °C 44.6 °F /  7 °C 29.93in /  1013.4hPa Calm   1.0mph /  1.6km/h 47% 0.00in /  0mm 0.0 W/m2
20:00 64.9 °F /  18.3 °C 44.2 °F /  6.8 °C 29.93in /  1013.4hPa Calm     47% 0.00in /  0mm 0.0 W/m2
20:06 64.8 °F /  18.2 °C 44.1 °F /  6.7 °C 29.94in /  1013.8hPa Calm   1.0mph /  1.6km/h 47% 0.00in /  0mm 0.0 W/m2
20:12 64.2 °F /  17.9 °C 44.1 °F /  6.7 °C 29.94in /  1013.8hPa ESE 0.9mph /  1.4km/h 2.0mph /  3.2km/h 48% 0.00in /  0mm 0.0 W/m2
20:19 64.0 °F /  17.8 °C 43.9 °F /  6.6 °C 29.94in /  1013.8hPa Calm   1.0mph /  1.6km/h 48% 0.00in /  0mm 0.0 W/m2
20:25 63.7 °F /  17.6 °C 44.2 °F /  6.8 °C 29.94in /  1013.8hPa Calm     49% 0.00in /  0mm 0.0 W/m2
20:31 63.5 °F /  17.5 °C 44.1 °F /  6.7 °C 29.94in /  1013.8hPa Calm     49% 0.00in /  0mm 0.0 W/m2
20:37 63.3 °F /  17.4 °C 44.4 °F /  6.9 °C 29.95in /  1014.1hPa Calm     50% 0.00in /  0mm 0.0 W/m2
20:43 63.1 °F /  17.3 °C 44.8 °F /  7.1 °C 29.95in /  1014.1hPa Calm     51% 0.00in /  0mm 0.0 W/m2
20:49 63.0 °F /  17.2 °C 44.6 °F /  7 °C 29.95in /  1014.1hPa Calm     51% 0.00in /  0mm 0.0 W/m2
20:55 63.0 °F /  17.2 °C 44.6 °F /  7 °C 29.95in /  1014.1hPa Calm   2.0mph /  3.2km/h 51% 0.00in /  0mm 0.0 W/m2
21:01 62.8 °F /  17.1 °C 44.4 °F /  6.9 °C 29.95in /  1014.1hPa Calm   1.0mph /  1.6km/h 51% 0.00in /  0mm 0.0 W/m2
21:07 62.4 °F /  16.9 °C 44.1 °F /  6.7 °C 29.95in /  1014.1hPa Calm     51% 0.00in /  0mm 0.0 W/m2
21:13 62.4 °F /  16.9 °C 44.1 °F /  6.7 °C 29.95in /  1014.1hPa Calm   2.0mph /  3.2km/h 51% 0.00in /  0mm 0.0 W/m2
21:19 62.2 °F /  16.8 °C 43.9 °F /  6.6 °C 29.95in /  1014.1hPa Calm   1.0mph /  1.6km/h 51% 0.00in /  0mm 0.0 W/m2
21:26 62.1 °F /  16.7 °C 43.7 °F /  6.5 °C 29.95in /  1014.1hPa Calm   1.0mph /  1.6km/h 51% 0.00in /  0mm 0.0 W/m2
21:32 61.9 °F /  16.6 °C 43.5 °F /  6.4 °C 29.95in /  1014.1hPa Calm   1.0mph /  1.6km/h 51% 0.00in /  0mm 0.0 W/m2
21:38 61.7 °F /  16.5 °C 43.3 °F /  6.3 °C 29.95in /  1014.1hPa Calm     51% 0.00in /  0mm 0.0 W/m2
21:44 61.5 °F /  16.4 °C 43.2 °F /  6.2 °C 29.95in /  1014.1hPa Calm   1.0mph /  1.6km/h 51% 0.00in /  0mm 0.0 W/m2
21:52 61.3 °F /  16.3 °C 43.5 °F /  6.4 °C 29.95in /  1014.1hPa Calm     52% 0.00in /  0mm 0.0 W/m2
21:58 61.2 °F /  16.2 °C 43.3 °F /  6.3 °C 29.95in /  1014.1hPa Calm     52% 0.00in /  0mm 0.0 W/m2
22:04 60.8 °F /  16 °C 43.0 °F /  6.1 °C 29.95in /  1014.1hPa Calm     52% 0.00in /  0mm 0.0 W/m2
22:10 60.6 °F /  15.9 °C 43.0 °F /  6.1 °C 29.95in /  1014.1hPa Calm   3.0mph /  4.8km/h 52% 0.00in /  0mm 0.0 W/m2
22:16 60.3 °F /  15.7 °C 43.0 °F /  6.1 °C 29.96in /  1014.4hPa Calm   1.0mph /  1.6km/h 53% 0.00in /  0mm 0.0 W/m2
22:22 60.1 °F /  15.6 °C 43.3 °F /  6.3 °C 29.96in /  1014.4hPa Calm   2.0mph /  3.2km/h 54% 0.00in /  0mm 0.0 W/m2
22:28 59.7 °F /  15.4 °C 43.5 °F /  6.4 °C 29.96in /  1014.4hPa East 0.9mph /  1.4km/h 3.0mph /  4.8km/h 55% 0.00in /  0mm 0.0 W/m2
22:35 59.5 °F /  15.3 °C 43.9 °F /  6.6 °C 29.95in /  1014.1hPa East 0.9mph /  1.4km/h 2.0mph /  3.2km/h 56% 0.00in /  0mm 0.0 W/m2
22:41 59.4 °F /  15.2 °C 43.7 °F /  6.5 °C 29.96in /  1014.4hPa Calm   3.0mph /  4.8km/h 56% 0.00in /  0mm 0.0 W/m2
22:47 59.0 °F /  15 °C 43.3 °F /  6.3 °C 29.96in /  1014.4hPa Calm   3.0mph /  4.8km/h 56% 0.00in /  0mm 0.0 W/m2
22:53 58.8 °F /  14.9 °C 43.2 °F /  6.2 °C 29.95in /  1014.1hPa Calm     56% 0.00in /  0mm 0.0 W/m2
22:59 58.6 °F /  14.8 °C 43.0 °F /  6.1 °C 29.95in /  1014.1hPa Calm     56% 0.00in /  0mm 0.0 W/m2
23:05 58.5 °F /  14.7 °C 42.8 °F /  6 °C 29.95in /  1014.1hPa Calm     56% 0.00in /  0mm 0.0 W/m2
23:11 58.1 °F /  14.5 °C 43.0 °F /  6.1 °C 29.95in /  1014.1hPa Calm   2.0mph /  3.2km/h 57% 0.00in /  0mm 0.0 W/m2
23:17 57.9 °F /  14.4 °C 42.8 °F /  6 °C 29.95in /  1014.1hPa Calm   1.0mph /  1.6km/h 57% 0.00in /  0mm 0.0 W/m2
23:23 57.7 °F /  14.3 °C 42.6 °F /  5.9 °C 29.95in /  1014.1hPa East 0.9mph /  1.4km/h 1.0mph /  1.6km/h 57% 0.00in /  0mm 0.0 W/m2
23:31 57.4 °F /  14.1 °C 42.3 °F /  5.7 °C 29.95in /  1014.1hPa Calm   1.0mph /  1.6km/h 57% 0.00in /  0mm 0.0 W/m2
23:37 57.2 °F /  14 °C 42.1 °F /  5.6 °C 29.94in /  1013.8hPa Calm   1.0mph /  1.6km/h 57% 0.00in /  0mm 0.0 W/m2
23:44 57.0 °F /  13.9 °C 42.4 °F /  5.8 °C 29.94in /  1013.8hPa Calm     58% 0.00in /  0mm 0.0 W/m2
23:50 56.8 °F /  13.8 °C 42.3 °F /  5.7 °C 29.94in /  1013.8hPa Calm     58% 0.00in /  0mm 0.0 W/m2
23:56 56.7 °F /  13.7 °C 42.1 °F /  5.6 °C 29.94in /  1013.8hPa Calm     58% 0.00in /  0mm 0.0 W/m2
Olympia, Windhoek, Namibia
Compliments of Weather Underground - 3 mb